Time;durP1;ratioP1;P1;durP2;ratioP2;P2;SDS_P1;SDS_P2;PMS_P1;PMS_P2;Temp;Humidity;BMP_temperature;BMP_pressure;BME280_temperature;BME280_humidity;BME280_pressure;Samples;Min_cycle;Max_cycle;Signal;HPM_P1;HPM_P2
2022/06/12 00:01:00;;;;;;;8.95;4.00;;;;;;;;;;6202473;28;20233;-75
2022/06/12 00:04:21;;;;;;;11.45;5.00;;;;;;;;;;6199892;28;20683;-74
2022/06/12 00:07:42;;;;;;;7.75;3.88;;;;;;;;;;6199298;28;20233;-75
2022/06/12 00:11:05;;;;;;;10.77;4.03;;;;;;;;;;6203914;28;20492;-74
2022/06/12 00:14:26;;;;;;;8.85;3.75;;;;;;;;;;6203155;28;20237;-75
2022/06/12 00:17:47;;;;;;;9.45;3.83;;;;;;;;;;6202665;28;20247;-74
2022/06/12 00:21:14;;;;;;;11.88;4.13;;;;;;;;;;6205781;28;20242;-74
2022/06/12 00:24:35;;;;;;;9.18;3.88;;;;;;;;;;6203938;28;20229;-74
2022/06/12 00:27:58;;;;;;;10.38;4.30;;;;;;;;;;6201079;28;20915;-74
2022/06/12 00:31:19;;;;;;;7.95;3.95;;;;;;;;;;6205025;28;20221;-74
2022/06/12 00:34:42;;;;;;;8.70;4.13;;;;;;;;;;6204123;28;20307;-74
2022/06/12 00:38:02;;;;;;;6.72;4.10;;;;;;;;;;6196730;28;20489;-74
2022/06/12 00:41:23;;;;;;;5.35;3.40;;;;;;;;;;6201762;28;20629;-74
2022/06/12 00:44:45;;;;;;;11.23;4.20;;;;;;;;;;6203054;28;20229;-74
2022/06/12 00:48:08;;;;;;;17.25;4.97;;;;;;;;;;6202637;28;20320;-75
2022/06/12 00:51:28;;;;;;;8.50;3.28;;;;;;;;;;6203937;28;20251;-75
2022/06/12 00:54:52;;;;;;;7.35;3.78;;;;;;;;;;6205657;28;20233;-75
2022/06/12 00:58:14;;;;;;;6.57;3.75;;;;;;;;;;6203530;28;20233;-72
2022/06/12 01:01:37;;;;;;;8.65;4.15;;;;;;;;;;6192214;28;20237;-74
2022/06/12 01:08:36;;;;;;;8.02;3.92;;;;;;;;;;6204212;28;20245;-74
2022/06/12 01:11:58;;;;;;;9.18;4.13;;;;;;;;;;6203880;28;20228;-75
2022/06/12 01:15:21;;;;;;;8.68;4.10;;;;;;;;;;6204859;28;20221;-74
2022/06/12 01:18:44;;;;;;;7.53;4.05;;;;;;;;;;6192229;28;20327;-74
2022/06/12 01:22:26;;;;;;;12.27;4.60;;;;;;;;;;6201771;28;20245;-75
2022/06/12 01:26:04;;;;;;;7.88;4.43;;;;;;;;;;6166165;28;20245;-74
2022/06/12 01:29:29;;;;;;;7.65;3.67;;;;;;;;;;6199085;28;20225;-74
2022/06/12 01:32:52;;;;;;;9.30;3.95;;;;;;;;;;6191150;28;20329;-75
2022/06/12 01:36:16;;;;;;;6.45;4.07;;;;;;;;;;6204712;28;20229;-74
2022/06/12 01:39:40;;;;;;;10.05;4.05;;;;;;;;;;6204451;28;20319;-74
2022/06/12 01:43:05;;;;;;;12.43;4.55;;;;;;;;;;6204207;28;20615;-74
2022/06/12 01:46:34;;;;;;;10.82;4.80;;;;;;;;;;6202421;28;20320;-75
2022/06/12 01:50:01;;;;;;;8.68;4.65;;;;;;;;;;6201515;28;20232;-74
2022/06/12 01:53:27;;;;;;;9.10;4.70;;;;;;;;;;6196813;28;20225;-74
2022/06/12 01:56:51;;;;;;;9.80;5.70;;;;;;;;;;6198873;28;20804;-74
2022/06/12 02:00:13;;;;;;;8.48;5.55;;;;;;;;;;6198453;28;20821;-74
2022/06/12 02:03:40;;;;;;;11.48;4.32;;;;;;;;;;6202976;28;20233;-75
2022/06/12 02:07:04;;;;;;;8.05;4.15;;;;;;;;;;6203504;28;20228;-75
2022/06/12 02:10:27;;;;;;;9.68;5.53;;;;;;;;;;6196659;28;20229;-75
2022/06/12 02:13:48;;;;;;;8.32;5.05;;;;;;;;;;6204330;28;20496;-74
2022/06/12 02:17:10;;;;;;;10.82;5.72;;;;;;;;;;6203191;28;21187;-75
2022/06/12 02:20:35;;;;;;;7.18;4.72;;;;;;;;;;6208781;28;20261;-74
2022/06/12 02:24:00;;;;;;;8.75;4.80;;;;;;;;;;6209433;28;20229;-74
2022/06/12 02:27:24;;;;;;;9.25;4.50;;;;;;;;;;6209150;28;20236;-73
2022/06/12 02:30:48;;;;;;;12.25;4.85;;;;;;;;;;6208263;28;20323;-75
2022/06/12 02:34:10;;;;;;;9.88;4.88;;;;;;;;;;6199574;28;20654;-74
2022/06/12 02:37:36;;;;;;;6.13;4.47;;;;;;;;;;6206191;28;20229;-74
2022/06/12 02:40:58;;;;;;;8.23;4.45;;;;;;;;;;6205657;28;20233;-74
2022/06/12 02:44:23;;;;;;;9.02;5.75;;;;;;;;;;6203696;28;20357;-73
2022/06/12 02:47:44;;;;;;;11.13;5.55;;;;;;;;;;6205332;28;20244;-75
2022/06/12 02:51:09;;;;;;;9.52;5.70;;;;;;;;;;6205628;28;20226;-75
2022/06/12 02:54:34;;;;;;;6.28;3.97;;;;;;;;;;6203972;28;20234;-75
2022/06/12 02:57:58;;;;;;;10.13;4.90;;;;;;;;;;6202441;28;20689;-75
2022/06/12 03:01:19;;;;;;;8.23;5.28;;;;;;;;;;6203937;28;20240;-74
2022/06/12 03:04:41;;;;;;;9.32;4.72;;;;;;;;;;6208872;28;20612;-75
2022/06/12 03:08:03;;;;;;;12.00;6.55;;;;;;;;;;6196314;28;20229;-75
2022/06/12 03:11:26;;;;;;;9.35;5.40;;;;;;;;;;6203143;28;20295;-74
2022/06/12 03:14:52;;;;;;;7.30;4.30;;;;;;;;;;6210081;28;20640;-74
2022/06/12 03:18:14;;;;;;;9.63;4.93;;;;;;;;;;6201057;28;20229;-74
2022/06/12 03:21:39;;;;;;;14.18;5.72;;;;;;;;;;6203082;28;20230;-74
2022/06/12 03:25:05;;;;;;;10.53;5.50;;;;;;;;;;6204408;28;20610;-74
2022/06/12 03:28:34;;;;;;;9.43;5.63;;;;;;;;;;6204794;28;20496;-74
2022/06/12 03:31:58;;;;;;;11.37;7.30;;;;;;;;;;6204473;28;20225;-74
2022/06/12 03:35:21;;;;;;;15.20;10.68;;;;;;;;;;6201440;28;20226;-74
2022/06/12 03:38:47;;;;;;;12.55;7.40;;;;;;;;;;6207980;28;20525;-74
2022/06/12 03:42:11;;;;;;;11.20;8.00;;;;;;;;;;6205426;28;20270;-75
2022/06/12 03:45:37;;;;;;;8.45;4.57;;;;;;;;;;6205281;28;20229;-75
2022/06/12 03:49:01;;;;;;;11.00;6.50;;;;;;;;;;6205830;28;20258;-74
2022/06/12 03:52:25;;;;;;;9.88;5.35;;;;;;;;;;6202927;28;20238;-74
2022/06/12 03:59:28;;;;;;;7.95;5.28;;;;;;;;;;6205434;28;20237;-74
2022/06/12 04:02:52;;;;;;;8.82;4.85;;;;;;;;;;6200552;28;20232;-74
2022/06/12 04:06:15;;;;;;;8.70;4.70;;;;;;;;;;6203642;28;20237;-73
2022/06/12 04:09:39;;;;;;;10.60;5.75;;;;;;;;;;6205462;28;20241;-74
2022/06/12 04:13:00;;;;;;;8.25;5.50;;;;;;;;;;6196413;28;20236;-74
2022/06/12 04:16:23;;;;;;;13.07;5.53;;;;;;;;;;6204499;28;20229;-73
2022/06/12 04:20:00;;;;;;;13.45;6.85;;;;;;;;;;6201101;28;20221;-74
2022/06/12 04:23:23;;;;;;;7.13;4.47;;;;;;;;;;6203924;28;20360;-74
2022/06/12 04:26:45;;;;;;;7.45;4.60;;;;;;;;;;6205601;28;20351;-74
2022/06/12 04:30:15;;;;;;;9.98;4.82;;;;;;;;;;6206218;28;20319;-75
2022/06/12 04:33:51;;;;;;;9.25;4.93;;;;;;;;;;6204515;28;20782;-74
2022/06/12 04:37:14;;;;;;;10.13;5.45;;;;;;;;;;6202425;28;20248;-74
2022/06/12 04:40:35;;;;;;;9.60;5.05;;;;;;;;;;6204247;28;20590;-74
2022/06/12 04:43:55;;;;;;;13.93;5.53;;;;;;;;;;6208587;28;20225;-74
2022/06/12 04:47:17;;;;;;;10.98;6.50;;;;;;;;;;6203567;28;20883;-74
2022/06/12 04:50:38;;;;;;;10.27;4.88;;;;;;;;;;6201643;28;20319;-74
2022/06/12 04:54:00;;;;;;;11.83;5.73;;;;;;;;;;6202768;28;20893;-73
2022/06/12 04:57:22;;;;;;;7.82;4.80;;;;;;;;;;6201834;28;20225;-74
2022/06/12 05:00:43;;;;;;;11.23;5.28;;;;;;;;;;6199856;28;20871;-74
2022/06/12 05:04:05;;;;;;;13.65;6.32;;;;;;;;;;6201657;28;20233;-74
2022/06/12 05:07:27;;;;;;;11.07;5.82;;;;;;;;;;6204196;28;20232;-74
2022/06/12 05:10:49;;;;;;;9.80;5.78;;;;;;;;;;6203970;28;20241;-74
2022/06/12 05:14:09;;;;;;;10.80;5.05;;;;;;;;;;6205284;28;20592;-75
2022/06/12 05:17:30;;;;;;;9.57;5.10;;;;;;;;;;6207678;28;20621;-75
2022/06/12 05:20:51;;;;;;;8.60;5.05;;;;;;;;;;6207238;28;20224;-73
2022/06/12 05:24:11;;;;;;;11.00;4.15;;;;;;;;;;6201601;28;20607;-74
2022/06/12 05:27:33;;;;;;;8.63;4.15;;;;;;;;;;6202468;28;20639;-75
2022/06/12 05:30:54;;;;;;;9.07;4.07;;;;;;;;;;6203225;28;20241;-74
2022/06/12 05:34:15;;;;;;;6.95;3.85;;;;;;;;;;6205167;28;20229;-74
2022/06/12 05:37:36;;;;;;;8.35;4.00;;;;;;;;;;6193497;28;20233;-74
2022/06/12 05:40:57;;;;;;;10.85;4.75;;;;;;;;;;6205470;28;20320;-74
2022/06/12 05:44:19;;;;;;;8.13;3.58;;;;;;;;;;6196832;28;20230;-74
2022/06/12 05:47:44;;;;;;;8.93;3.63;;;;;;;;;;6207557;28;20982;-74
2022/06/12 05:51:06;;;;;;;7.93;4.20;;;;;;;;;;6200854;28;20236;-74
2022/06/12 05:54:26;;;;;;;11.07;3.92;;;;;;;;;;6205547;28;20241;-74
2022/06/12 05:57:47;;;;;;;8.55;3.63;;;;;;;;;;6212730;28;20288;-74
2022/06/12 06:01:10;;;;;;;8.23;3.97;;;;;;;;;;6205366;28;20260;-73
2022/06/12 06:04:31;;;;;;;9.60;3.22;;;;;;;;;;6209605;28;20221;-73
2022/06/12 06:07:51;;;;;;;8.07;3.08;;;;;;;;;;6204662;28;20225;-75
2022/06/12 06:11:12;;;;;;;8.20;3.00;;;;;;;;;;6205133;28;20229;-74
2022/06/12 06:14:32;;;;;;;8.07;3.25;;;;;;;;;;6191869;28;20521;-74
2022/06/12 06:17:54;;;;;;;10.00;4.05;;;;;;;;;;6205590;28;20573;-74
2022/06/12 06:21:15;;;;;;;10.50;3.50;;;;;;;;;;6204859;28;20244;-73
2022/06/12 06:24:36;;;;;;;10.93;3.67;;;;;;;;;;6206042;28;20248;-74
2022/06/12 06:27:57;;;;;;;9.73;2.92;;;;;;;;;;6207138;28;20638;-75
2022/06/12 06:31:19;;;;;;;7.68;2.88;;;;;;;;;;6209563;28;20229;-74
2022/06/12 06:34:41;;;;;;;9.18;3.35;;;;;;;;;;6204993;28;20237;-74
2022/06/12 06:38:01;;;;;;;12.80;3.22;;;;;;;;;;6203737;28;20237;-73
2022/06/12 06:41:23;;;;;;;7.80;3.30;;;;;;;;;;6205342;28;20221;-74
2022/06/12 06:48:22;;;;;;;7.00;3.30;;;;;;;;;;6204492;28;20228;-74
2022/06/12 06:51:44;;;;;;;6.55;3.15;;;;;;;;;;6207576;28;20614;-74
2022/06/12 06:55:06;;;;;;;8.65;2.80;;;;;;;;;;6187582;28;20237;-74
2022/06/12 06:58:30;;;;;;;9.90;3.97;;;;;;;;;;6206991;28;20229;-72
2022/06/12 07:01:51;;;;;;;8.23;3.53;;;;;;;;;;6204949;28;20233;-74
2022/06/12 07:05:12;;;;;;;16.63;4.25;;;;;;;;;;6205627;28;20233;-73
2022/06/12 07:08:34;;;;;;;11.18;4.18;;;;;;;;;;6201405;28;20224;-74
2022/06/12 07:11:54;;;;;;;9.05;3.35;;;;;;;;;;6202523;28;20324;-75
2022/06/12 07:15:15;;;;;;;7.78;2.97;;;;;;;;;;6203847;28;20236;-74
2022/06/12 07:18:35;;;;;;;6.45;2.65;;;;;;;;;;6204981;28;20226;-74
2022/06/12 07:21:56;;;;;;;9.15;2.85;;;;;;;;;;6213792;28;20229;-74
2022/06/12 07:25:18;;;;;;;8.15;2.60;;;;;;;;;;6201649;28;20237;-74
2022/06/12 07:28:39;;;;;;;6.03;2.47;;;;;;;;;;6209080;28;20569;-73
2022/06/12 07:32:00;;;;;;;6.22;2.38;;;;;;;;;;6201950;28;20240;-74
2022/06/12 07:35:21;;;;;;;8.63;2.30;;;;;;;;;;6204417;28;20793;-74
2022/06/12 07:38:42;;;;;;;5.50;2.88;;;;;;;;;;6202190;28;20320;-74
2022/06/12 07:42:04;;;;;;;7.25;2.88;;;;;;;;;;6207164;28;20324;-74
2022/06/12 07:45:25;;;;;;;9.25;3.03;;;;;;;;;;6200361;28;20232;-75
2022/06/12 07:48:46;;;;;;;7.13;2.42;;;;;;;;;;6202329;28;20221;-73
2022/06/12 07:52:08;;;;;;;6.50;2.53;;;;;;;;;;6209850;28;20249;-73
2022/06/12 07:55:29;;;;;;;8.48;2.92;;;;;;;;;;6203605;28;20217;-74
2022/06/12 07:58:51;;;;;;;4.85;2.17;;;;;;;;;;6192271;28;20616;-74
2022/06/12 08:02:12;;;;;;;6.57;2.53;;;;;;;;;;6204515;28;20225;-74
2022/06/12 08:05:33;;;;;;;8.27;2.10;;;;;;;;;;6199439;28;20228;-75
2022/06/12 08:08:56;;;;;;;9.00;2.88;;;;;;;;;;6205711;28;20241;-79
2022/06/12 08:12:17;;;;;;;3.38;1.80;;;;;;;;;;6207896;28;20634;-79
2022/06/12 08:15:40;;;;;;;9.43;2.30;;;;;;;;;;6173872;28;20233;-79
2022/06/12 08:19:00;;;;;;;6.40;2.45;;;;;;;;;;6201025;28;20710;-70
2022/06/12 08:22:21;;;;;;;6.68;2.38;;;;;;;;;;6200010;28;20233;-67
2022/06/12 08:25:42;;;;;;;9.27;3.25;;;;;;;;;;6203526;28;20225;-68
2022/06/12 08:29:05;;;;;;;8.15;2.63;;;;;;;;;;6202618;28;20614;-68
2022/06/12 08:32:27;;;;;;;5.47;2.28;;;;;;;;;;6204705;28;20334;-69
2022/06/12 08:35:48;;;;;;;5.82;2.13;;;;;;;;;;6198929;28;20233;-70
2022/06/12 08:39:09;;;;;;;5.03;1.75;;;;;;;;;;6204528;28;20228;-70
2022/06/12 08:42:31;;;;;;;6.07;2.08;;;;;;;;;;6203111;28;20654;-69
2022/06/12 08:45:52;;;;;;;6.53;2.00;;;;;;;;;;6194695;28;20233;-69
2022/06/12 08:49:19;;;;;;;4.20;1.98;;;;;;;;;;6206635;28;20225;-73
2022/06/12 08:52:43;;;;;;;5.32;2.28;;;;;;;;;;6203716;28;20473;-73
2022/06/12 08:56:06;;;;;;;5.20;2.20;;;;;;;;;;6208529;28;20236;-74
2022/06/12 08:59:30;;;;;;;9.85;2.60;;;;;;;;;;6210482;28;20237;-72
2022/06/12 09:02:51;;;;;;;4.50;2.20;;;;;;;;;;6206127;28;20268;-72
2022/06/12 09:06:20;;;;;;;5.43;2.00;;;;;;;;;;6208716;28;20859;-72
2022/06/12 09:09:43;;;;;;;7.35;3.10;;;;;;;;;;6191099;28;20225;-72
2022/06/12 09:13:09;;;;;;;4.53;2.10;;;;;;;;;;6205308;28;20823;-72
2022/06/12 09:16:33;;;;;;;3.83;1.95;;;;;;;;;;6207867;28;20658;-72
2022/06/12 09:19:57;;;;;;;5.25;1.70;;;;;;;;;;6205973;28;20527;-72
2022/06/12 09:23:25;;;;;;;5.05;2.08;;;;;;;;;;6203276;28;20234;-73
2022/06/12 09:26:52;;;;;;;6.65;2.33;;;;;;;;;;6204948;28;20319;-72
2022/06/12 09:30:16;;;;;;;8.20;2.90;;;;;;;;;;6206292;28;20240;-71
2022/06/12 09:33:39;;;;;;;5.63;1.95;;;;;;;;;;6200345;28;20234;-72
2022/06/12 09:38:18;;;;;;;8.18;2.47;;;;;;;;;;6211276;28;20228;-71
2022/06/12 09:41:03;;;;;;;5.13;2.13;;;;;;;;;;6202892;28;22520;-70
2022/06/12 09:44:26;;;;;;;4.22;2.08;;;;;;;;;;6206948;28;20224;-72
2022/06/12 09:47:48;;;;;;;5.05;2.20;;;;;;;;;;6203638;28;20963;-74
2022/06/12 09:51:14;;;;;;;7.38;2.58;;;;;;;;;;6209117;28;20509;-72
2022/06/12 09:54:46;;;;;;;6.75;2.05;;;;;;;;;;6201657;28;20225;-71
2022/06/12 09:58:11;;;;;;;4.95;2.13;;;;;;;;;;6181848;28;20237;-71
2022/06/12 10:01:35;;;;;;;5.57;2.10;;;;;;;;;;6205742;28;20257;-70
2022/06/12 10:04:59;;;;;;;5.65;2.10;;;;;;;;;;6201393;28;20335;-70
2022/06/12 10:08:22;;;;;;;5.30;1.90;;;;;;;;;;6201909;28;20237;-73
2022/06/12 10:11:45;;;;;;;3.65;2.13;;;;;;;;;;6201316;28;20229;-75
2022/06/12 10:15:11;;;;;;;5.50;1.65;;;;;;;;;;6200592;28;20229;-74
2022/06/12 10:18:35;;;;;;;3.60;2.00;;;;;;;;;;6200705;28;20336;-74
2022/06/12 10:21:59;;;;;;;5.65;2.00;;;;;;;;;;6208389;28;20515;-72
2022/06/12 10:25:21;;;;;;;4.90;1.98;;;;;;;;;;6203147;28;20233;-72
2022/06/12 10:28:42;;;;;;;6.40;1.85;;;;;;;;;;6209412;28;20236;-73
2022/06/12 10:32:05;;;;;;;4.15;1.40;;;;;;;;;;6207710;28;20229;-71
2022/06/12 10:35:26;;;;;;;4.32;1.45;;;;;;;;;;6205775;28;20607;-72
2022/06/12 10:38:47;;;;;;;3.75;1.95;;;;;;;;;;6210043;28;20954;-72
2022/06/12 10:42:25;;;;;;;5.85;1.85;;;;;;;;;;6213230;28;20233;-71
2022/06/12 10:45:55;;;;;;;3.83;2.17;;;;;;;;;;6209036;28;20229;-71
2022/06/12 10:49:19;;;;;;;4.05;1.83;;;;;;;;;;6203947;28;20225;-72
2022/06/12 10:52:49;;;;;;;3.53;1.90;;;;;;;;;;6212174;28;20230;-71
2022/06/12 10:56:16;;;;;;;6.97;2.92;;;;;;;;;;6212560;28;20236;-72
2022/06/12 10:59:38;;;;;;;5.35;2.25;;;;;;;;;;6213983;28;20229;-71
2022/06/12 11:03:06;;;;;;;7.43;2.05;;;;;;;;;;6208593;28;20229;-71
2022/06/12 11:06:31;;;;;;;4.13;2.00;;;;;;;;;;6207257;28;20260;-72
2022/06/12 11:10:01;;;;;;;3.95;2.40;;;;;;;;;;6210150;28;20323;-71
2022/06/12 11:13:33;;;;;;;5.85;2.30;;;;;;;;;;6200940;28;20225;-72
2022/06/12 11:17:00;;;;;;;5.18;1.30;;;;;;;;;;6208409;28;20291;-72
2022/06/12 11:20:28;;;;;;;4.68;1.83;;;;;;;;;;6208068;28;20230;-72
2022/06/12 11:23:58;;;;;;;4.00;1.75;;;;;;;;;;6208113;28;20233;-71
2022/06/12 11:27:29;;;;;;;5.75;2.40;;;;;;;;;;6208819;28;20321;-72
2022/06/12 11:30:53;;;;;;;2.63;1.38;;;;;;;;;;6184143;28;20221;-72
2022/06/12 11:34:22;;;;;;;3.97;1.67;;;;;;;;;;6206798;28;20597;-69
2022/06/12 11:37:56;;;;;;;3.35;2.45;;;;;;;;;;6208742;28;20220;-70
2022/06/12 11:41:25;;;;;;;4.90;1.85;;;;;;;;;;6212139;28;20245;-71
2022/06/12 11:44:54;;;;;;;4.75;1.92;;;;;;;;;;6208023;28;20311;-71
2022/06/12 11:48:23;;;;;;;4.30;2.30;;;;;;;;;;6211689;28;20231;-70
2022/06/12 11:51:51;;;;;;;3.90;2.20;;;;;;;;;;6207341;28;20236;-72
2022/06/12 11:55:23;;;;;;;4.65;2.17;;;;;;;;;;6209013;28;20330;-71
2022/06/12 11:58:51;;;;;;;4.93;2.00;;;;;;;;;;6204791;28;20341;-72
2022/06/12 12:02:14;;;;;;;6.25;2.22;;;;;;;;;;6208839;28;20224;-71
2022/06/12 12:05:42;;;;;;;5.93;1.40;;;;;;;;;;6209669;28;20260;-71
2022/06/12 12:09:10;;;;;;;3.85;2.03;;;;;;;;;;6206861;28;20233;-73
2022/06/12 12:12:34;;;;;;;4.75;2.05;;;;;;;;;;6210664;28;20784;-72
2022/06/12 12:15:57;;;;;;;9.00;2.35;;;;;;;;;;6210411;28;20229;-74
2022/06/12 12:19:20;;;;;;;3.22;1.75;;;;;;;;;;6205631;28;20226;-71
2022/06/12 12:22:43;;;;;;;5.40;1.70;;;;;;;;;;6209389;28;20237;-70
2022/06/12 12:26:06;;;;;;;5.30;2.00;;;;;;;;;;6214314;28;20736;-71
2022/06/12 12:29:28;;;;;;;4.22;1.65;;;;;;;;;;6206362;28;20265;-72
2022/06/12 12:32:52;;;;;;;4.18;1.52;;;;;;;;;;6209879;28;20233;-71
2022/06/12 12:43:50;;;;;;;7.88;2.05;;;;;;;;;;6210009;28;20229;-78
2022/06/12 12:47:17;;;;;;;3.20;1.45;;;;;;;;;;6196589;28;20284;-77
2022/06/12 13:17:05;;;;;;;4.03;2.42;;;;;;;;;;6166810;28;20228;-73
2022/06/12 13:20:49;;;;;;;7.22;3.33;;;;;;;;;;6196306;28;20229;-73
2022/06/12 13:24:26;;;;;;;5.78;1.95;;;;;;;;;;6198318;28;20232;-72
2022/06/12 13:27:48;;;;;;;6.20;2.55;;;;;;;;;;6200294;28;20224;-76
2022/06/12 13:31:18;;;;;;;4.65;1.60;;;;;;;;;;6203870;28;20237;-66
2022/06/12 13:34:40;;;;;;;3.70;2.30;;;;;;;;;;6197397;28;20237;-75
2022/06/12 13:38:02;;;;;;;11.75;2.90;;;;;;;;;;6197475;28;20233;-71
2022/06/12 13:41:26;;;;;;;6.85;2.60;;;;;;;;;;6204854;28;20229;-70
2022/06/12 13:44:47;;;;;;;6.43;2.55;;;;;;;;;;6192529;28;20229;-71
2022/06/12 13:48:19;;;;;;;4.40;2.58;;;;;;;;;;6195914;28;20332;-71
2022/06/12 13:51:43;;;;;;;7.80;3.10;;;;;;;;;;6192766;28;20228;-71
2022/06/12 13:55:18;;;;;;;7.55;3.45;;;;;;;;;;6192829;28;20233;-71
2022/06/12 13:58:40;;;;;;;7.25;2.60;;;;;;;;;;6197307;28;21070;-71
2022/06/12 14:02:08;;;;;;;6.90;2.63;;;;;;;;;;6195101;28;20252;-71
2022/06/12 14:05:30;;;;;;;10.77;6.72;;;;;;;;;;6192042;28;20237;-72
2022/06/12 14:08:54;;;;;;;7.97;5.07;;;;;;;;;;6197446;28;20222;-72
2022/06/12 14:12:15;;;;;;;5.05;1.83;;;;;;;;;;6205129;28;20225;-72
2022/06/12 14:15:37;;;;;;;5.05;2.70;;;;;;;;;;6211616;28;20233;-70
2022/06/12 14:19:00;;;;;;;7.20;2.78;;;;;;;;;;6212934;28;20229;-72
2022/06/12 14:22:21;;;;;;;5.28;2.13;;;;;;;;;;6215296;28;20609;-72
2022/06/12 14:25:48;;;;;;;7.63;2.95;;;;;;;;;;6206301;28;20236;-72
2022/06/12 14:29:30;;;;;;;6.00;2.97;;;;;;;;;;6211271;28;20221;-72
2022/06/12 14:32:50;;;;;;;6.13;2.92;;;;;;;;;;6207849;28;20229;-71
2022/06/12 14:36:13;;;;;;;5.97;2.63;;;;;;;;;;6207427;28;20261;-70
2022/06/12 14:39:35;;;;;;;6.65;3.05;;;;;;;;;;6210521;28;20233;-70
2022/06/12 14:42:58;;;;;;;6.93;3.72;;;;;;;;;;6207195;28;20517;-69
2022/06/12 14:46:20;;;;;;;9.82;4.07;;;;;;;;;;6204312;28;20249;-70
2022/06/12 14:49:41;;;;;;;6.13;2.63;;;;;;;;;;6207257;28;20497;-71
2022/06/12 14:53:02;;;;;;;6.15;2.67;;;;;;;;;;6209409;28;20229;-72
2022/06/12 14:56:24;;;;;;;5.05;2.75;;;;;;;;;;6210266;28;20332;-71
2022/06/12 14:59:46;;;;;;;10.95;4.32;;;;;;;;;;6209370;28;20233;-71
2022/06/12 15:03:10;;;;;;;5.72;2.05;;;;;;;;;;6210597;28;20623;-72
2022/06/12 15:06:30;;;;;;;4.03;2.40;;;;;;;;;;6210274;28;20312;-72
2022/06/12 15:09:51;;;;;;;5.13;3.00;;;;;;;;;;6207042;28;20242;-71
2022/06/12 15:13:13;;;;;;;6.43;2.38;;;;;;;;;;6208193;28;20514;-71
2022/06/12 15:16:35;;;;;;;4.28;3.17;;;;;;;;;;6208698;28;20225;-71
2022/06/12 15:19:56;;;;;;;7.22;5.55;;;;;;;;;;6207278;28;20229;-71
2022/06/12 15:23:18;;;;;;;7.53;3.15;;;;;;;;;;6211205;28;20229;-72
2022/06/12 15:30:17;;;;;;;6.00;2.75;;;;;;;;;;6209731;28;20237;-73
2022/06/12 15:33:39;;;;;;;3.35;2.50;;;;;;;;;;6207857;28;20228;-72
2022/06/12 15:37:00;;;;;;;2.60;1.65;;;;;;;;;;6204886;28;20250;-71
2022/06/12 15:40:21;;;;;;;3.97;1.90;;;;;;;;;;6213672;28;20225;-72
2022/06/12 15:43:41;;;;;;;4.38;2.55;;;;;;;;;;6199342;28;20268;-71
2022/06/12 15:47:02;;;;;;;5.13;2.15;;;;;;;;;;6187825;28;20225;-71
2022/06/12 15:50:24;;;;;;;6.05;2.85;;;;;;;;;;6207923;28;20237;-71
2022/06/12 15:53:45;;;;;;;5.40;2.78;;;;;;;;;;6204936;28;20304;-71
2022/06/12 15:57:06;;;;;;;6.63;2.40;;;;;;;;;;6202807;28;20225;-72
2022/06/12 16:00:27;;;;;;;3.38;2.08;;;;;;;;;;6197753;28;20237;-72
2022/06/12 16:03:48;;;;;;;3.35;2.03;;;;;;;;;;6203390;28;20225;-72
2022/06/12 16:07:10;;;;;;;5.70;2.17;;;;;;;;;;6200212;28;20615;-71
2022/06/12 16:10:32;;;;;;;5.13;2.15;;;;;;;;;;6203590;28;20556;-71
2022/06/12 16:13:53;;;;;;;5.22;2.03;;;;;;;;;;6200097;28;20301;-70
2022/06/12 16:17:14;;;;;;;5.82;3.33;;;;;;;;;;6207033;28;20226;-70
2022/06/12 16:20:35;;;;;;;5.25;4.28;;;;;;;;;;6204830;28;20233;-70
2022/06/12 16:23:57;;;;;;;6.53;2.22;;;;;;;;;;6199432;28;20932;-71
2022/06/12 16:27:17;;;;;;;3.17;2.13;;;;;;;;;;6204239;28;20236;-71
2022/06/12 16:30:38;;;;;;;4.78;2.83;;;;;;;;;;6201059;28;20229;-70
2022/06/12 16:33:59;;;;;;;2.47;1.73;;;;;;;;;;6206458;28;20225;-69
2022/06/12 16:37:19;;;;;;;4.68;2.22;;;;;;;;;;6211436;28;20601;-70
2022/06/12 16:40:42;;;;;;;4.45;2.65;;;;;;;;;;6211814;28;20229;-71
2022/06/12 16:44:02;;;;;;;2.95;1.80;;;;;;;;;;6202373;28;20229;-71
2022/06/12 16:47:23;;;;;;;4.13;2.10;;;;;;;;;;6203658;28;20505;-71
2022/06/12 16:50:43;;;;;;;5.05;2.35;;;;;;;;;;6197477;28;20323;-71
2022/06/12 16:54:04;;;;;;;4.43;2.88;;;;;;;;;;6202926;28;20237;-72
2022/06/12 16:57:27;;;;;;;4.22;1.85;;;;;;;;;;6201481;28;20333;-71
2022/06/12 17:00:48;;;;;;;4.28;2.45;;;;;;;;;;6200636;28;20614;-72
2022/06/12 17:04:09;;;;;;;4.32;2.13;;;;;;;;;;6200892;28;20229;-71
2022/06/12 17:07:31;;;;;;;3.55;1.92;;;;;;;;;;6198956;28;20710;-71
2022/06/12 17:10:52;;;;;;;3.30;1.77;;;;;;;;;;6199626;28;20226;-70
2022/06/12 17:14:13;;;;;;;3.25;2.03;;;;;;;;;;6200760;28;20229;-71
2022/06/12 17:17:34;;;;;;;5.78;2.65;;;;;;;;;;6172666;28;20237;-72
2022/06/12 17:20:54;;;;;;;7.10;2.53;;;;;;;;;;6201555;28;20233;-72
2022/06/12 17:24:14;;;;;;;3.70;1.85;;;;;;;;;;6201280;28;20229;-71
2022/06/12 17:27:34;;;;;;;3.03;2.33;;;;;;;;;;6191530;28;20959;-71
2022/06/12 17:30:58;;;;;;;4.43;2.28;;;;;;;;;;6200135;28;20237;-72
2022/06/12 17:34:18;;;;;;;4.40;2.20;;;;;;;;;;6200811;28;20225;-71
2022/06/12 17:37:39;;;;;;;5.60;2.67;;;;;;;;;;6201471;28;20868;-72
2022/06/12 17:41:00;;;;;;;5.90;3.05;;;;;;;;;;6202065;28;20249;-72
2022/06/12 17:44:22;;;;;;;9.15;4.10;;;;;;;;;;6200652;28;20311;-72
2022/06/12 17:47:44;;;;;;;3.38;2.40;;;;;;;;;;6196337;28;20237;-72
2022/06/12 17:51:05;;;;;;;5.75;2.08;;;;;;;;;;6211579;28;20221;-71
2022/06/12 17:54:25;;;;;;;4.03;2.30;;;;;;;;;;6200188;28;20316;-71
2022/06/12 17:57:46;;;;;;;5.10;2.63;;;;;;;;;;6204461;28;20554;-71
2022/06/12 18:01:07;;;;;;;3.60;2.25;;;;;;;;;;6207809;28;20328;-72
2022/06/12 18:04:29;;;;;;;5.53;3.05;;;;;;;;;;6203271;28;20233;-70
2022/06/12 18:07:50;;;;;;;6.57;2.95;;;;;;;;;;6207918;28;20256;-77
2022/06/12 18:11:12;;;;;;;3.88;2.47;;;;;;;;;;6210893;28;20308;-78
2022/06/12 18:21:48;;;;;;;4.20;2.58;;;;;;;;;;6201205;28;20228;-77
2022/06/12 18:25:09;;;;;;;6.55;3.05;;;;;;;;;;6196547;28;20241;-69
2022/06/12 18:28:29;;;;;;;3.97;2.30;;;;;;;;;;6197166;28;20264;-70
2022/06/12 18:31:50;;;;;;;6.97;2.63;;;;;;;;;;6203697;28;20262;-70
2022/06/12 18:35:11;;;;;;;3.45;2.30;;;;;;;;;;6203981;28;20543;-72
2022/06/12 18:38:33;;;;;;;5.47;2.75;;;;;;;;;;6201849;28;20308;-74
2022/06/12 18:41:53;;;;;;;5.45;2.85;;;;;;;;;;6201571;28;20225;-73
2022/06/12 18:45:14;;;;;;;6.50;3.33;;;;;;;;;;6201540;28;20229;-73
2022/06/12 18:48:35;;;;;;;7.38;3.58;;;;;;;;;;6199385;28;20233;-70
2022/06/12 18:51:55;;;;;;;5.80;3.05;;;;;;;;;;6179379;28;20224;-72
2022/06/12 18:55:17;;;;;;;5.85;3.00;;;;;;;;;;6174709;28;21563;-71
2022/06/12 18:58:38;;;;;;;6.90;3.10;;;;;;;;;;6185158;28;20225;-72
2022/06/12 19:01:58;;;;;;;7.90;3.03;;;;;;;;;;6173837;28;20678;-72
2022/06/12 19:05:18;;;;;;;12.73;4.80;;;;;;;;;;6180037;28;20237;-73
2022/06/12 19:08:39;;;;;;;8.73;4.00;;;;;;;;;;6177820;28;20237;-73
2022/06/12 19:12:02;;;;;;;6.82;3.53;;;;;;;;;;6174007;28;20276;-72
2022/06/12 19:15:22;;;;;;;8.77;3.60;;;;;;;;;;6175432;28;20237;-70
2022/06/12 19:18:43;;;;;;;7.45;3.03;;;;;;;;;;6177086;28;20690;-70
2022/06/12 19:22:04;;;;;;;4.30;2.75;;;;;;;;;;6180331;28;20233;-70
2022/06/12 19:25:24;;;;;;;8.75;3.50;;;;;;;;;;6189633;28;20241;-71
2022/06/12 19:28:46;;;;;;;4.22;2.90;;;;;;;;;;6189131;28;20230;-71
2022/06/12 19:32:07;;;;;;;6.72;4.20;;;;;;;;;;6176153;28;20233;-70
2022/06/12 19:35:28;;;;;;;7.18;3.10;;;;;;;;;;6193890;28;20237;-71
2022/06/12 19:38:48;;;;;;;5.53;3.40;;;;;;;;;;6194414;28;20224;-71
2022/06/12 19:42:09;;;;;;;6.28;3.58;;;;;;;;;;6193135;28;22305;-71
2022/06/12 19:45:31;;;;;;;7.35;3.83;;;;;;;;;;6196194;28;20320;-72
2022/06/12 19:48:52;;;;;;;11.40;4.32;;;;;;;;;;6197991;28;20236;-71
2022/06/12 19:52:16;;;;;;;10.20;4.53;;;;;;;;;;6200158;28;20229;-72
2022/06/12 19:55:37;;;;;;;8.77;3.38;;;;;;;;;;6188167;28;20233;-71
2022/06/12 19:58:57;;;;;;;12.35;4.25;;;;;;;;;;6176378;28;20629;-72
2022/06/12 20:02:19;;;;;;;8.45;3.42;;;;;;;;;;6196604;28;20240;-72
2022/06/12 20:09:18;;;;;;;9.93;3.88;;;;;;;;;;6198918;28;20513;-73
2022/06/12 20:12:39;;;;;;;11.00;5.85;;;;;;;;;;6198012;28;20226;-71
2022/06/12 20:16:00;;;;;;;8.65;4.03;;;;;;;;;;6198194;28;20229;-79
2022/06/12 20:19:25;;;;;;;6.57;3.38;;;;;;;;;;6203188;28;21005;-78
2022/06/12 20:22:46;;;;;;;7.32;4.63;;;;;;;;;;6197304;28;20237;-80
2022/06/12 20:26:06;;;;;;;9.80;4.32;;;;;;;;;;6175748;28;20816;-77
2022/06/12 20:29:27;;;;;;;10.18;4.00;;;;;;;;;;6197414;28;20239;-78
2022/06/12 20:32:48;;;;;;;10.00;4.32;;;;;;;;;;6203017;28;20508;-80
2022/06/12 20:36:10;;;;;;;7.72;4.07;;;;;;;;;;6200754;28;20253;-78
2022/06/12 20:39:31;;;;;;;13.18;5.20;;;;;;;;;;6202213;28;20511;-77
2022/06/12 20:42:52;;;;;;;7.05;3.72;;;;;;;;;;6198824;28;20324;-76
2022/06/12 20:46:13;;;;;;;13.18;4.75;;;;;;;;;;6199275;28;20283;-77
2022/06/12 20:49:36;;;;;;;8.93;4.80;;;;;;;;;;6204504;28;20230;-76
2022/06/12 20:52:58;;;;;;;9.52;4.22;;;;;;;;;;6200077;28;20312;-77
2022/06/12 20:56:18;;;;;;;11.90;5.00;;;;;;;;;;6200634;28;20225;-77
2022/06/12 20:59:39;;;;;;;11.18;5.65;;;;;;;;;;6202896;28;20225;-76
2022/06/12 21:03:00;;;;;;;12.20;5.30;;;;;;;;;;6195562;28;20225;-76
2022/06/12 21:06:20;;;;;;;7.28;4.35;;;;;;;;;;6182582;28;20319;-79
2022/06/12 21:09:42;;;;;;;12.05;5.63;;;;;;;;;;6198675;28;20314;-78
2022/06/12 21:13:03;;;;;;;11.13;5.72;;;;;;;;;;6191707;28;20228;-74